Earl Gonsoulin — WDC3306 — position and weather

sailwx.info

Track history (hours):
 
Tides and Currents Weather Stations Pressure Air Temp Water Temp Dewpoint Dewpoint Depression Visibility Wind Speed Wind Dir Waves Ship Positions

Earl Gonsoulin

Owner: LeBeouf Bros. Towing, L.L.C., Houma, LA. More information available from US FCC via Universal Licensing System and Coast Guard Vessel Documentation Center.

Last reported at 2014-Oct-15 10:08 UTC. Time now 2014-Oct-24 21:29 UTC.
Position N 29°41' W 094°10'.
Warning: this ship's position is 9 days out of date.

Length 22 m.

Type: Towing. MMSI: 367005550.

Date/timePositionNaut miles runAvg speedWind from/ knotsBaromVisibWave heightAir tempDewpointWater temp
2014-Oct-15 10:08N 29°41' W 094°10'26 4.6
2014-Oct-15 04:21N 29°29' W 094°36'4 4.7
2014-Oct-15 03:29N 29°27' W 094°41'8 4.2
2014-Oct-15 01:32N 29°22' W 094°48'5 5.0
2014-Oct-15 00:33N 29°26' W 094°50'7 6.9
2014-Oct-14 23:33N 29°32' W 094°54'6 5.8
2014-Oct-14 22:33N 29°37' W 094°58'6 6.0
2014-Oct-14 21:33N 29°43' W 095°01'5 4.6
2014-Oct-14 20:31N 29°45' W 095°06'5 0.5
2014-Oct-14 11:07N 29°45' W 095°12'0 0.0
2014-Oct-14 01:29N 29°45' W 095°12'0 0.0
2014-Oct-13 19:32N 29°45' W 095°12'0 0.0
2014-Oct-13 04:33N 29°45' W 095°12'0 0.0
2014-Oct-12 22:10N 29°45' W 095°12'0 0.0
2014-Oct-12 12:24N 29°45' W 095°12'0 0.0
2014-Oct-12 11:16N 29°45' W 095°12'0 0.0
2014-Oct-12 10:25N 29°45' W 095°12'0 0.0
2014-Oct-12 03:33N 29°45' W 095°12'0 0.0
2014-Oct-12 02:33N 29°45' W 095°12'0 0.0
2014-Oct-12 01:33N 29°45' W 095°12'0 0.0
2014-Oct-10 16:17N 29°45' W 095°12'0 0.0
2014-Oct-08 22:33N 29°45' W 095°12'2 2.3
2014-Oct-08 21:33N 29°44' W 095°09'5 4.6
2014-Oct-08 20:33N 29°47' W 095°05'0 0.0
2014-Oct-08 19:33N 29°47' W 095°05'0 0.0
2014-Oct-08 18:33N 29°47' W 095°05'0 0.0
2014-Oct-08 17:33N 29°47' W 095°05'4 4.4
2014-Oct-08 16:33N 29°43' W 095°01'7 6.6
2014-Oct-08 15:33N 29°38' W 094°58'8 7.5
2014-Oct-08 14:33N 29°31' W 094°53'10 4.8
2014-Oct-08 12:28N 29°24' W 094°45'  
Track history (hours):
 
Tides and Currents Weather Stations Pressure Air Temp Water Temp Dewpoint Dewpoint Depression Visibility Wind Speed Wind Dir Waves Ship Positions

Earl Gonsoulin

Owner: LeBeouf Bros. Towing, L.L.C., Houma, LA. More information available from US FCC via Universal Licensing System and Coast Guard Vessel Documentation Center.

Last reported at 2014-Oct-15 10:08 UTC. Time now 2014-Oct-24 21:29 UTC.
Position N 29°41' W 094°10'.
Warning: this ship's position is 9 days out of date.

Length 22 m.

Type: Towing. MMSI: 367005550.

Date/timePositionNaut miles runAvg speedWind from/ knotsBaromVisibWave heightAir tempDewpointWater temp
2014-Oct-15 10:08N 29°41' W 094°10'26 4.6
2014-Oct-15 04:21N 29°29' W 094°36'4 4.7
2014-Oct-15 03:29N 29°27' W 094°41'8 4.2
2014-Oct-15 01:32N 29°22' W 094°48'5 5.0
2014-Oct-15 00:33N 29°26' W 094°50'7 6.9
2014-Oct-14 23:33N 29°32' W 094°54'6 5.8
2014-Oct-14 22:33N 29°37' W 094°58'6 6.0
2014-Oct-14 21:33N 29°43' W 095°01'5 4.6
2014-Oct-14 20:31N 29°45' W 095°06'5 0.5
2014-Oct-14 11:07N 29°45' W 095°12'0 0.0
2014-Oct-14 01:29N 29°45' W 095°12'0 0.0
2014-Oct-13 19:32N 29°45' W 095°12'0 0.0
2014-Oct-13 04:33N 29°45' W 095°12'0 0.0
2014-Oct-12 22:10N 29°45' W 095°12'0 0.0
2014-Oct-12 12:24N 29°45' W 095°12'0 0.0
2014-Oct-12 11:16N 29°45' W 095°12'0 0.0
2014-Oct-12 10:25N 29°45' W 095°12'0 0.0
2014-Oct-12 03:33N 29°45' W 095°12'0 0.0
2014-Oct-12 02:33N 29°45' W 095°12'0 0.0
2014-Oct-12 01:33N 29°45' W 095°12'0 0.0
2014-Oct-10 16:17N 29°45' W 095°12'0 0.0
2014-Oct-08 22:33N 29°45' W 095°12'2 2.3
2014-Oct-08 21:33N 29°44' W 095°09'5 4.6
2014-Oct-08 20:33N 29°47' W 095°05'0 0.0
2014-Oct-08 19:33N 29°47' W 095°05'0 0.0
2014-Oct-08 18:33N 29°47' W 095°05'0 0.0
2014-Oct-08 17:33N 29°47' W 095°05'4 4.4
2014-Oct-08 16:33N 29°43' W 095°01'7 6.6
2014-Oct-08 15:33N 29°38' W 094°58'8 7.5
2014-Oct-08 14:33N 29°31' W 094°53'10 4.8
2014-Oct-08 12:28N 29°24' W 094°45'  

Dump ship's entire track history